Flight Briefing for CPX118

Departure Arrival
Ted Stevens Anchorage International Airport (PANC)
Click to view FAA NOTAMS
Los Angeles International Airport (KLAX)
Click to view FAA NOTAMS
Departure Time Arrival Time
N/A N/A
Aircraft Distance
MD-11SF 2090nm
Departure METAR Arrival METAR
PANC 152053Z 00000KT 10SM FEW002 M11/M17 A3004 RMK AO2 SLP177 FG BNK DSNT NE T11111172 51003 KLAX 152053Z 25012KT 9SM FEW027 BKN075 BKN160 15/09 A3012 RMK AO2 SLP199 T01500089 58002
Suggested Route
MDO B453 KURTT B453 KYLLE B453 BOXER ENI OAK TILLT HUULL HUULL2


View recent IFR Routes data
Notes



Charts and Procedures

Charts for PANC
No chart available
Charts for KLAX
No chart available

Ventusky Weather